<?xml version="1.0" encoding="UTF-8" standalone="no" ?>
<gpx xmlns="http://www.topografix.com/GPX/1/1" xmlns:xsi="http://www.w3.org/2001/XMLSchema-instance" xsi:schemaLocation="http://www.topografix.com/GPX/1/1 http://www.topografix.com/GPX/1/1/gpx.xsd" version="1.1" creator="VisuGPX - https://www.visugpx.com">
  <metadata>
    <name>12614984-Le Tacot 2021</name>
  </metadata>
  <trk>
    <name><![CDATA[12614984-Le Tacot 2021]]></name>
    <trkseg>
      <trkpt lat="45.4201" lon="4.66299">
        <ele>526</ele>
        <time>2021-03-17T16:12:14Z</time>
      </trkpt>
      <trkpt lat="45.42019" lon="4.66245">
        <ele>530</ele>
        <time>2021-03-17T16:12:33Z</time>
      </trkpt>
      <trkpt lat="45.42021" lon="4.66215">
        <ele>531</ele>
        <time>2021-03-17T16:12:44Z</time>
      </trkpt>
      <trkpt lat="45.42029" lon="4.66161">
        <ele>533</ele>
        <time>2021-03-17T16:13:03Z</time>
      </trkpt>
      <trkpt lat="45.42061" lon="4.66084">
        <ele>539</ele>
        <time>2021-03-17T16:13:35Z</time>
      </trkpt>
      <trkpt lat="45.42087" lon="4.65994">
        <ele>542</ele>
        <time>2021-03-17T16:14:09Z</time>
      </trkpt>
      <trkpt lat="45.42114" lon="4.65936">
        <ele>544</ele>
        <time>2021-03-17T16:14:34Z</time>
      </trkpt>
      <trkpt lat="45.4212" lon="4.65866">
        <ele>546</ele>
        <time>2021-03-17T16:14:58Z</time>
      </trkpt>
      <trkpt lat="45.42147" lon="4.65791">
        <ele>554</ele>
        <time>2021-03-17T16:15:28Z</time>
      </trkpt>
      <trkpt lat="45.42149" lon="4.65789">
        <ele>554</ele>
        <time>2021-03-17T16:15:29Z</time>
      </trkpt>
      <trkpt lat="45.42154" lon="4.65791">
        <ele>555</ele>
        <time>2021-03-17T16:15:32Z</time>
      </trkpt>
      <trkpt lat="45.42161" lon="4.65799">
        <ele>557</ele>
        <time>2021-03-17T16:15:36Z</time>
      </trkpt>
      <trkpt lat="45.42242" lon="4.65915">
        <ele>561</ele>
        <time>2021-03-17T16:16:34Z</time>
      </trkpt>
      <trkpt lat="45.42253" lon="4.65927">
        <ele>561</ele>
        <time>2021-03-17T16:16:41Z</time>
      </trkpt>
      <trkpt lat="45.42275" lon="4.65942">
        <ele>561</ele>
        <time>2021-03-17T16:16:53Z</time>
      </trkpt>
      <trkpt lat="45.42281" lon="4.65944">
        <ele>561</ele>
        <time>2021-03-17T16:16:56Z</time>
      </trkpt>
      <trkpt lat="45.42289" lon="4.65943">
        <ele>561</ele>
        <time>2021-03-17T16:17:00Z</time>
      </trkpt>
      <trkpt lat="45.42297" lon="4.65929">
        <ele>563</ele>
        <time>2021-03-17T16:17:06Z</time>
      </trkpt>
      <trkpt lat="45.42307" lon="4.659">
        <ele>566</ele>
        <time>2021-03-17T16:17:18Z</time>
      </trkpt>
      <trkpt lat="45.42324" lon="4.65877">
        <ele>569</ele>
        <time>2021-03-17T16:17:29Z</time>
      </trkpt>
      <trkpt lat="45.42327" lon="4.65862">
        <ele>570</ele>
        <time>2021-03-17T16:17:35Z</time>
      </trkpt>
      <trkpt lat="45.42327" lon="4.65834">
        <ele>573</ele>
        <time>2021-03-17T16:17:45Z</time>
      </trkpt>
      <trkpt lat="45.42323" lon="4.65802">
        <ele>575</ele>
        <time>2021-03-17T16:17:56Z</time>
      </trkpt>
      <trkpt lat="45.42329" lon="4.65773">
        <ele>577</ele>
        <time>2021-03-17T16:18:07Z</time>
      </trkpt>
      <trkpt lat="45.42329" lon="4.65732">
        <ele>581</ele>
        <time>2021-03-17T16:18:21Z</time>
      </trkpt>
      <trkpt lat="45.42334" lon="4.65677">
        <ele>588</ele>
        <time>2021-03-17T16:18:41Z</time>
      </trkpt>
      <trkpt lat="45.4234" lon="4.65652">
        <ele>591</ele>
        <time>2021-03-17T16:18:50Z</time>
      </trkpt>
      <trkpt lat="45.42338" lon="4.65636">
        <ele>592</ele>
        <time>2021-03-17T16:18:56Z</time>
      </trkpt>
      <trkpt lat="45.42341" lon="4.6561">
        <ele>595</ele>
        <time>2021-03-17T16:19:05Z</time>
      </trkpt>
      <trkpt lat="45.42347" lon="4.65589">
        <ele>598</ele>
        <time>2021-03-17T16:19:13Z</time>
      </trkpt>
      <trkpt lat="45.42344" lon="4.65578">
        <ele>598</ele>
        <time>2021-03-17T16:19:17Z</time>
      </trkpt>
      <trkpt lat="45.42336" lon="4.65566">
        <ele>596</ele>
        <time>2021-03-17T16:19:23Z</time>
      </trkpt>
      <trkpt lat="45.42328" lon="4.65541">
        <ele>596</ele>
        <time>2021-03-17T16:19:32Z</time>
      </trkpt>
      <trkpt lat="45.42293" lon="4.65523">
        <ele>589</ele>
        <time>2021-03-17T16:19:51Z</time>
      </trkpt>
      <trkpt lat="45.42289" lon="4.65523">
        <ele>588</ele>
        <time>2021-03-17T16:19:53Z</time>
      </trkpt>
      <trkpt lat="45.42285" lon="4.65529">
        <ele>587</ele>
        <time>2021-03-17T16:19:56Z</time>
      </trkpt>
      <trkpt lat="45.42282" lon="4.6555">
        <ele>586</ele>
        <time>2021-03-17T16:20:03Z</time>
      </trkpt>
      <trkpt lat="45.42277" lon="4.65558">
        <ele>584</ele>
        <time>2021-03-17T16:20:07Z</time>
      </trkpt>
      <trkpt lat="45.42243" lon="4.65578">
        <ele>577</ele>
        <time>2021-03-17T16:20:26Z</time>
      </trkpt>
      <trkpt lat="45.42232" lon="4.6558">
        <ele>575</ele>
        <time>2021-03-17T16:20:31Z</time>
      </trkpt>
      <trkpt lat="45.42201" lon="4.6557">
        <ele>570</ele>
        <time>2021-03-17T16:20:47Z</time>
      </trkpt>
      <trkpt lat="45.4219" lon="4.65562">
        <ele>569</ele>
        <time>2021-03-17T16:20:53Z</time>
      </trkpt>
      <trkpt lat="45.42186" lon="4.65554">
        <ele>568</ele>
        <time>2021-03-17T16:20:57Z</time>
      </trkpt>
      <trkpt lat="45.42181" lon="4.65536">
        <ele>568</ele>
        <time>2021-03-17T16:21:04Z</time>
      </trkpt>
      <trkpt lat="45.42174" lon="4.65481">
        <ele>569</ele>
        <time>2021-03-17T16:21:23Z</time>
      </trkpt>
      <trkpt lat="45.42173" lon="4.65445">
        <ele>571</ele>
        <time>2021-03-17T16:21:36Z</time>
      </trkpt>
      <trkpt lat="45.42182" lon="4.65405">
        <ele>575</ele>
        <time>2021-03-17T16:21:51Z</time>
      </trkpt>
      <trkpt lat="45.42185" lon="4.65374">
        <ele>577</ele>
        <time>2021-03-17T16:22:02Z</time>
      </trkpt>
      <trkpt lat="45.42179" lon="4.65314">
        <ele>580</ele>
        <time>2021-03-17T16:22:23Z</time>
      </trkpt>
      <trkpt lat="45.42179" lon="4.65265">
        <ele>582</ele>
        <time>2021-03-17T16:22:40Z</time>
      </trkpt>
      <trkpt lat="45.42171" lon="4.65172">
        <ele>587</ele>
        <time>2021-03-17T16:23:13Z</time>
      </trkpt>
      <trkpt lat="45.42172" lon="4.65148">
        <ele>590</ele>
        <time>2021-03-17T16:23:21Z</time>
      </trkpt>
      <trkpt lat="45.42168" lon="4.65131">
        <ele>590</ele>
        <time>2021-03-17T16:23:28Z</time>
      </trkpt>
      <trkpt lat="45.42162" lon="4.65066">
        <ele>596</ele>
        <time>2021-03-17T16:23:51Z</time>
      </trkpt>
      <trkpt lat="45.42164" lon="4.65052">
        <ele>598</ele>
        <time>2021-03-17T16:23:56Z</time>
      </trkpt>
      <trkpt lat="45.42164" lon="4.64985">
        <ele>606</ele>
        <time>2021-03-17T16:24:19Z</time>
      </trkpt>
      <trkpt lat="45.42161" lon="4.64975">
        <ele>605</ele>
        <time>2021-03-17T16:24:23Z</time>
      </trkpt>
      <trkpt lat="45.42158" lon="4.64944">
        <ele>607</ele>
        <time>2021-03-17T16:24:34Z</time>
      </trkpt>
      <trkpt lat="45.42157" lon="4.64897">
        <ele>611</ele>
        <time>2021-03-17T16:24:51Z</time>
      </trkpt>
      <trkpt lat="45.42154" lon="4.64873">
        <ele>612</ele>
        <time>2021-03-17T16:24:59Z</time>
      </trkpt>
      <trkpt lat="45.42155" lon="4.64807">
        <ele>617</ele>
        <time>2021-03-17T16:25:22Z</time>
      </trkpt>
      <trkpt lat="45.42153" lon="4.64769">
        <ele>620</ele>
        <time>2021-03-17T16:25:36Z</time>
      </trkpt>
      <trkpt lat="45.42156" lon="4.64707">
        <ele>627</ele>
        <time>2021-03-17T16:25:58Z</time>
      </trkpt>
      <trkpt lat="45.4215" lon="4.64656">
        <ele>630</ele>
        <time>2021-03-17T16:26:16Z</time>
      </trkpt>
      <trkpt lat="45.42152" lon="4.6462">
        <ele>634</ele>
        <time>2021-03-17T16:26:28Z</time>
      </trkpt>
      <trkpt lat="45.42158" lon="4.64575">
        <ele>639</ele>
        <time>2021-03-17T16:26:44Z</time>
      </trkpt>
      <trkpt lat="45.42182" lon="4.6448">
        <ele>644</ele>
        <time>2021-03-17T16:27:20Z</time>
      </trkpt>
      <trkpt lat="45.42206" lon="4.64437">
        <ele>650</ele>
        <time>2021-03-17T16:27:39Z</time>
      </trkpt>
      <trkpt lat="45.42216" lon="4.64378">
        <ele>651</ele>
        <time>2021-03-17T16:28:01Z</time>
      </trkpt>
      <trkpt lat="45.42223" lon="4.64311">
        <ele>649</ele>
        <time>2021-03-17T16:28:24Z</time>
      </trkpt>
      <trkpt lat="45.42226" lon="4.64235">
        <ele>646</ele>
        <time>2021-03-17T16:28:51Z</time>
      </trkpt>
      <trkpt lat="45.42225" lon="4.64184">
        <ele>646</ele>
        <time>2021-03-17T16:29:09Z</time>
      </trkpt>
      <trkpt lat="45.42213" lon="4.64141">
        <ele>644</ele>
        <time>2021-03-17T16:29:25Z</time>
      </trkpt>
      <trkpt lat="45.42189" lon="4.64088">
        <ele>640</ele>
        <time>2021-03-17T16:29:47Z</time>
      </trkpt>
      <trkpt lat="45.42174" lon="4.64064">
        <ele>638</ele>
        <time>2021-03-17T16:29:59Z</time>
      </trkpt>
      <trkpt lat="45.4217" lon="4.64049">
        <ele>638</ele>
        <time>2021-03-17T16:30:04Z</time>
      </trkpt>
      <trkpt lat="45.42164" lon="4.64039">
        <ele>638</ele>
        <time>2021-03-17T16:30:09Z</time>
      </trkpt>
      <trkpt lat="45.42156" lon="4.64034">
        <ele>641</ele>
        <time>2021-03-17T16:30:13Z</time>
      </trkpt>
      <trkpt lat="45.42151" lon="4.64038">
        <ele>642</ele>
        <time>2021-03-17T16:30:16Z</time>
      </trkpt>
      <trkpt lat="45.42146" lon="4.64069">
        <ele>640</ele>
        <time>2021-03-17T16:30:27Z</time>
      </trkpt>
      <trkpt lat="45.42124" lon="4.64134">
        <ele>638</ele>
        <time>2021-03-17T16:30:53Z</time>
      </trkpt>
      <trkpt lat="45.42116" lon="4.64143">
        <ele>638</ele>
        <time>2021-03-17T16:30:58Z</time>
      </trkpt>
      <trkpt lat="45.42103" lon="4.64145">
        <ele>639</ele>
        <time>2021-03-17T16:31:04Z</time>
      </trkpt>
      <trkpt lat="45.42099" lon="4.64144">
        <ele>640</ele>
        <time>2021-03-17T16:31:06Z</time>
      </trkpt>
      <trkpt lat="45.42096" lon="4.6414">
        <ele>641</ele>
        <time>2021-03-17T16:31:08Z</time>
      </trkpt>
      <trkpt lat="45.42062" lon="4.64086">
        <ele>654</ele>
        <time>2021-03-17T16:31:34Z</time>
      </trkpt>
      <trkpt lat="45.42061" lon="4.64075">
        <ele>656</ele>
        <time>2021-03-17T16:31:38Z</time>
      </trkpt>
      <trkpt lat="45.42043" lon="4.64023">
        <ele>667</ele>
        <time>2021-03-17T16:31:58Z</time>
      </trkpt>
      <trkpt lat="45.42041" lon="4.63992">
        <ele>672</ele>
        <time>2021-03-17T16:32:09Z</time>
      </trkpt>
      <trkpt lat="45.42047" lon="4.63966">
        <ele>676</ele>
        <time>2021-03-17T16:32:19Z</time>
      </trkpt>
      <trkpt lat="45.4205" lon="4.63897">
        <ele>687</ele>
        <time>2021-03-17T16:32:43Z</time>
      </trkpt>
      <trkpt lat="45.42054" lon="4.63869">
        <ele>691</ele>
        <time>2021-03-17T16:32:53Z</time>
      </trkpt>
      <trkpt lat="45.42061" lon="4.63846">
        <ele>693</ele>
        <time>2021-03-17T16:33:02Z</time>
      </trkpt>
      <trkpt lat="45.42066" lon="4.63817">
        <ele>696</ele>
        <time>2021-03-17T16:33:12Z</time>
      </trkpt>
      <trkpt lat="45.42067" lon="4.63795">
        <ele>700</ele>
        <time>2021-03-17T16:33:20Z</time>
      </trkpt>
      <trkpt lat="45.42071" lon="4.63781">
        <ele>702</ele>
        <time>2021-03-17T16:33:25Z</time>
      </trkpt>
      <trkpt lat="45.4207" lon="4.63758">
        <ele>706</ele>
        <time>2021-03-17T16:33:34Z</time>
      </trkpt>
      <trkpt lat="45.42079" lon="4.63733">
        <ele>707</ele>
        <time>2021-03-17T16:33:43Z</time>
      </trkpt>
      <trkpt lat="45.42077" lon="4.63715">
        <ele>709</ele>
        <time>2021-03-17T16:33:50Z</time>
      </trkpt>
      <trkpt lat="45.42081" lon="4.63702">
        <ele>709</ele>
        <time>2021-03-17T16:33:55Z</time>
      </trkpt>
      <trkpt lat="45.4208" lon="4.63673">
        <ele>712</ele>
        <time>2021-03-17T16:34:05Z</time>
      </trkpt>
      <trkpt lat="45.42087" lon="4.63641">
        <ele>713</ele>
        <time>2021-03-17T16:34:17Z</time>
      </trkpt>
      <trkpt lat="45.42086" lon="4.63632">
        <ele>714</ele>
        <time>2021-03-17T16:34:20Z</time>
      </trkpt>
      <trkpt lat="45.42092" lon="4.636">
        <ele>716</ele>
        <time>2021-03-17T16:34:32Z</time>
      </trkpt>
      <trkpt lat="45.42091" lon="4.63586">
        <ele>717</ele>
        <time>2021-03-17T16:34:37Z</time>
      </trkpt>
      <trkpt lat="45.42088" lon="4.63579">
        <ele>719</ele>
        <time>2021-03-17T16:34:39Z</time>
      </trkpt>
      <trkpt lat="45.42092" lon="4.6355">
        <ele>722</ele>
        <time>2021-03-17T16:34:50Z</time>
      </trkpt>
      <trkpt lat="45.4209" lon="4.63557">
        <ele>722</ele>
        <time>2021-03-17T16:34:52Z</time>
      </trkpt>
      <trkpt lat="45.42078" lon="4.63573">
        <ele>723</ele>
        <time>2021-03-17T16:35:01Z</time>
      </trkpt>
      <trkpt lat="45.42067" lon="4.63594">
        <ele>724</ele>
        <time>2021-03-17T16:35:10Z</time>
      </trkpt>
      <trkpt lat="45.42062" lon="4.63609">
        <ele>725</ele>
        <time>2021-03-17T16:35:16Z</time>
      </trkpt>
      <trkpt lat="45.42049" lon="4.63671">
        <ele>722</ele>
        <time>2021-03-17T16:35:38Z</time>
      </trkpt>
      <trkpt lat="45.42042" lon="4.63694">
        <ele>722</ele>
        <time>2021-03-17T16:35:47Z</time>
      </trkpt>
      <trkpt lat="45.42039" lon="4.63716">
        <ele>721</ele>
        <time>2021-03-17T16:35:55Z</time>
      </trkpt>
      <trkpt lat="45.42038" lon="4.63725">
        <ele>720</ele>
        <time>2021-03-17T16:35:58Z</time>
      </trkpt>
      <trkpt lat="45.42044" lon="4.63742">
        <ele>717</ele>
        <time>2021-03-17T16:36:05Z</time>
      </trkpt>
      <trkpt lat="45.42044" lon="4.6375">
        <ele>716</ele>
        <time>2021-03-17T16:36:08Z</time>
      </trkpt>
      <trkpt lat="45.4203" lon="4.63776">
        <ele>715</ele>
        <time>2021-03-17T16:36:19Z</time>
      </trkpt>
      <trkpt lat="45.42017" lon="4.63806">
        <ele>713</ele>
        <time>2021-03-17T16:36:32Z</time>
      </trkpt>
      <trkpt lat="45.42013" lon="4.63821">
        <ele>711</ele>
        <time>2021-03-17T16:36:37Z</time>
      </trkpt>
      <trkpt lat="45.41965" lon="4.63882">
        <ele>709</ele>
        <time>2021-03-17T16:37:10Z</time>
      </trkpt>
      <trkpt lat="45.4193" lon="4.6391">
        <ele>709</ele>
        <time>2021-03-17T16:37:30Z</time>
      </trkpt>
      <trkpt lat="45.41914" lon="4.63928">
        <ele>707</ele>
        <time>2021-03-17T16:37:40Z</time>
      </trkpt>
      <trkpt lat="45.41896" lon="4.63964">
        <ele>699</ele>
        <time>2021-03-17T16:37:55Z</time>
      </trkpt>
      <trkpt lat="45.41874" lon="4.63995">
        <ele>694</ele>
        <time>2021-03-17T16:38:11Z</time>
      </trkpt>
      <trkpt lat="45.41857" lon="4.64">
        <ele>694</ele>
        <time>2021-03-17T16:38:19Z</time>
      </trkpt>
      <trkpt lat="45.41848" lon="4.64008">
        <ele>693</ele>
        <time>2021-03-17T16:38:25Z</time>
      </trkpt>
      <trkpt lat="45.41834" lon="4.64014">
        <ele>693</ele>
        <time>2021-03-17T16:38:32Z</time>
      </trkpt>
      <trkpt lat="45.418" lon="4.64018">
        <ele>691</ele>
        <time>2021-03-17T16:38:49Z</time>
      </trkpt>
      <trkpt lat="45.41792" lon="4.64023">
        <ele>690</ele>
        <time>2021-03-17T16:38:54Z</time>
      </trkpt>
      <trkpt lat="45.41765" lon="4.64032">
        <ele>688</ele>
        <time>2021-03-17T16:39:07Z</time>
      </trkpt>
      <trkpt lat="45.41739" lon="4.64046">
        <ele>684</ele>
        <time>2021-03-17T16:39:21Z</time>
      </trkpt>
      <trkpt lat="45.41725" lon="4.6405">
        <ele>682</ele>
        <time>2021-03-17T16:39:28Z</time>
      </trkpt>
      <trkpt lat="45.41695" lon="4.64072">
        <ele>675</ele>
        <time>2021-03-17T16:39:45Z</time>
      </trkpt>
      <trkpt lat="45.41683" lon="4.64087">
        <ele>671</ele>
        <time>2021-03-17T16:39:53Z</time>
      </trkpt>
      <trkpt lat="45.41675" lon="4.64092">
        <ele>669</ele>
        <time>2021-03-17T16:39:58Z</time>
      </trkpt>
      <trkpt lat="45.4166" lon="4.6409">
        <ele>668</ele>
        <time>2021-03-17T16:40:05Z</time>
      </trkpt>
      <trkpt lat="45.41634" lon="4.64078">
        <ele>670</ele>
        <time>2021-03-17T16:40:19Z</time>
      </trkpt>
      <trkpt lat="45.41623" lon="4.64064">
        <ele>672</ele>
        <time>2021-03-17T16:40:26Z</time>
      </trkpt>
      <trkpt lat="45.41617" lon="4.64061">
        <ele>672</ele>
        <time>2021-03-17T16:40:30Z</time>
      </trkpt>
      <trkpt lat="45.41609" lon="4.64052">
        <ele>673</ele>
        <time>2021-03-17T16:40:35Z</time>
      </trkpt>
      <trkpt lat="45.41601" lon="4.64036">
        <ele>675</ele>
        <time>2021-03-17T16:40:42Z</time>
      </trkpt>
      <trkpt lat="45.41594" lon="4.64034">
        <ele>675</ele>
        <time>2021-03-17T16:40:45Z</time>
      </trkpt>
      <trkpt lat="45.41587" lon="4.64036">
        <ele>674</ele>
        <time>2021-03-17T16:40:49Z</time>
      </trkpt>
      <trkpt lat="45.41577" lon="4.64046">
        <ele>675</ele>
        <time>2021-03-17T16:40:55Z</time>
      </trkpt>
      <trkpt lat="45.41574" lon="4.64074">
        <ele>673</ele>
        <time>2021-03-17T16:41:05Z</time>
      </trkpt>
      <trkpt lat="45.41575" lon="4.6412">
        <ele>672</ele>
        <time>2021-03-17T16:41:21Z</time>
      </trkpt>
      <trkpt lat="45.41582" lon="4.64135">
        <ele>669</ele>
        <time>2021-03-17T16:41:27Z</time>
      </trkpt>
      <trkpt lat="45.41582" lon="4.64141">
        <ele>669</ele>
        <time>2021-03-17T16:41:29Z</time>
      </trkpt>
      <trkpt lat="45.41594" lon="4.64174">
        <ele>668</ele>
        <time>2021-03-17T16:41:42Z</time>
      </trkpt>
      <trkpt lat="45.41602" lon="4.6419">
        <ele>669</ele>
        <time>2021-03-17T16:41:49Z</time>
      </trkpt>
      <trkpt lat="45.41642" lon="4.64238">
        <ele>663</ele>
        <time>2021-03-17T16:42:15Z</time>
      </trkpt>
      <trkpt lat="45.41649" lon="4.64242">
        <ele>661</ele>
        <time>2021-03-17T16:42:19Z</time>
      </trkpt>
      <trkpt lat="45.41652" lon="4.64247">
        <ele>660</ele>
        <time>2021-03-17T16:42:22Z</time>
      </trkpt>
      <trkpt lat="45.41651" lon="4.64253">
        <ele>661</ele>
        <time>2021-03-17T16:42:24Z</time>
      </trkpt>
      <trkpt lat="45.41657" lon="4.64265">
        <ele>661</ele>
        <time>2021-03-17T16:42:29Z</time>
      </trkpt>
      <trkpt lat="45.41656" lon="4.64271">
        <ele>662</ele>
        <time>2021-03-17T16:42:31Z</time>
      </trkpt>
      <trkpt lat="45.41664" lon="4.64307">
        <ele>666</ele>
        <time>2021-03-17T16:42:44Z</time>
      </trkpt>
      <trkpt lat="45.41685" lon="4.64352">
        <ele>665</ele>
        <time>2021-03-17T16:43:03Z</time>
      </trkpt>
      <trkpt lat="45.41695" lon="4.64389">
        <ele>666</ele>
        <time>2021-03-17T16:43:17Z</time>
      </trkpt>
      <trkpt lat="45.41727" lon="4.64434">
        <ele>659</ele>
        <time>2021-03-17T16:43:40Z</time>
      </trkpt>
      <trkpt lat="45.41733" lon="4.64446">
        <ele>657</ele>
        <time>2021-03-17T16:43:45Z</time>
      </trkpt>
      <trkpt lat="45.4174" lon="4.64465">
        <ele>656</ele>
        <time>2021-03-17T16:43:52Z</time>
      </trkpt>
      <trkpt lat="45.4175" lon="4.64516">
        <ele>653</ele>
        <time>2021-03-17T16:44:11Z</time>
      </trkpt>
      <trkpt lat="45.41752" lon="4.64533">
        <ele>652</ele>
        <time>2021-03-17T16:44:17Z</time>
      </trkpt>
      <trkpt lat="45.41749" lon="4.64544">
        <ele>652</ele>
        <time>2021-03-17T16:44:21Z</time>
      </trkpt>
      <trkpt lat="45.41752" lon="4.64551">
        <ele>651</ele>
        <time>2021-03-17T16:44:24Z</time>
      </trkpt>
      <trkpt lat="45.41752" lon="4.6457">
        <ele>650</ele>
        <time>2021-03-17T16:44:31Z</time>
      </trkpt>
      <trkpt lat="45.41757" lon="4.64587">
        <ele>648</ele>
        <time>2021-03-17T16:44:37Z</time>
      </trkpt>
      <trkpt lat="45.41758" lon="4.646">
        <ele>647</ele>
        <time>2021-03-17T16:44:42Z</time>
      </trkpt>
      <trkpt lat="45.41743" lon="4.64643">
        <ele>651</ele>
        <time>2021-03-17T16:44:59Z</time>
      </trkpt>
      <trkpt lat="45.41739" lon="4.64664">
        <ele>652</ele>
        <time>2021-03-17T16:45:06Z</time>
      </trkpt>
      <trkpt lat="45.41735" lon="4.64669">
        <ele>653</ele>
        <time>2021-03-17T16:45:09Z</time>
      </trkpt>
      <trkpt lat="45.41729" lon="4.64696">
        <ele>654</ele>
        <time>2021-03-17T16:45:19Z</time>
      </trkpt>
      <trkpt lat="45.41731" lon="4.64715">
        <ele>653</ele>
        <time>2021-03-17T16:45:26Z</time>
      </trkpt>
      <trkpt lat="45.41726" lon="4.64731">
        <ele>654</ele>
        <time>2021-03-17T16:45:32Z</time>
      </trkpt>
      <trkpt lat="45.41727" lon="4.64744">
        <ele>653</ele>
        <time>2021-03-17T16:45:36Z</time>
      </trkpt>
      <trkpt lat="45.4172" lon="4.64778">
        <ele>653</ele>
        <time>2021-03-17T16:45:49Z</time>
      </trkpt>
      <trkpt lat="45.41714" lon="4.64791">
        <ele>653</ele>
        <time>2021-03-17T16:45:54Z</time>
      </trkpt>
      <trkpt lat="45.41708" lon="4.64788">
        <ele>655</ele>
        <time>2021-03-17T16:45:58Z</time>
      </trkpt>
      <trkpt lat="45.41703" lon="4.64789">
        <ele>656</ele>
        <time>2021-03-17T16:46:00Z</time>
      </trkpt>
      <trkpt lat="45.41693" lon="4.64803">
        <ele>657</ele>
        <time>2021-03-17T16:46:07Z</time>
      </trkpt>
      <trkpt lat="45.41687" lon="4.64804">
        <ele>659</ele>
        <time>2021-03-17T16:46:10Z</time>
      </trkpt>
      <trkpt lat="45.41667" lon="4.64815">
        <ele>662</ele>
        <time>2021-03-17T16:46:21Z</time>
      </trkpt>
      <trkpt lat="45.4166" lon="4.64823">
        <ele>664</ele>
        <time>2021-03-17T16:46:25Z</time>
      </trkpt>
      <trkpt lat="45.41637" lon="4.64838">
        <ele>670</ele>
        <time>2021-03-17T16:46:38Z</time>
      </trkpt>
      <trkpt lat="45.41632" lon="4.64845">
        <ele>671</ele>
        <time>2021-03-17T16:46:42Z</time>
      </trkpt>
      <trkpt lat="45.41598" lon="4.64858">
        <ele>681</ele>
        <time>2021-03-17T16:46:59Z</time>
      </trkpt>
      <trkpt lat="45.41583" lon="4.64869">
        <ele>685</ele>
        <time>2021-03-17T16:47:08Z</time>
      </trkpt>
      <trkpt lat="45.4156" lon="4.64877">
        <ele>687</ele>
        <time>2021-03-17T16:47:19Z</time>
      </trkpt>
      <trkpt lat="45.41557" lon="4.64874">
        <ele>688</ele>
        <time>2021-03-17T16:47:21Z</time>
      </trkpt>
      <trkpt lat="45.41544" lon="4.64874">
        <ele>689</ele>
        <time>2021-03-17T16:47:28Z</time>
      </trkpt>
      <trkpt lat="45.41533" lon="4.64858">
        <ele>694</ele>
        <time>2021-03-17T16:47:36Z</time>
      </trkpt>
      <trkpt lat="45.41535" lon="4.64837">
        <ele>697</ele>
        <time>2021-03-17T16:47:43Z</time>
      </trkpt>
      <trkpt lat="45.4154" lon="4.64828">
        <ele>698</ele>
        <time>2021-03-17T16:47:47Z</time>
      </trkpt>
      <trkpt lat="45.41548" lon="4.64781">
        <ele>703</ele>
        <time>2021-03-17T16:48:04Z</time>
      </trkpt>
      <trkpt lat="45.41544" lon="4.64763">
        <ele>707</ele>
        <time>2021-03-17T16:48:11Z</time>
      </trkpt>
      <trkpt lat="45.41544" lon="4.64726">
        <ele>712</ele>
        <time>2021-03-17T16:48:24Z</time>
      </trkpt>
      <trkpt lat="45.4154" lon="4.64716">
        <ele>714</ele>
        <time>2021-03-17T16:48:28Z</time>
      </trkpt>
      <trkpt lat="45.41538" lon="4.64685">
        <ele>718</ele>
        <time>2021-03-17T16:48:39Z</time>
      </trkpt>
      <trkpt lat="45.41534" lon="4.64678">
        <ele>720</ele>
        <time>2021-03-17T16:48:42Z</time>
      </trkpt>
      <trkpt lat="45.41538" lon="4.64633">
        <ele>722</ele>
        <time>2021-03-17T16:48:58Z</time>
      </trkpt>
      <trkpt lat="45.41533" lon="4.64573">
        <ele>728</ele>
        <time>2021-03-17T16:49:19Z</time>
      </trkpt>
      <trkpt lat="45.41528" lon="4.64563">
        <ele>730</ele>
        <time>2021-03-17T16:49:23Z</time>
      </trkpt>
      <trkpt lat="45.4153" lon="4.64544">
        <ele>729</ele>
        <time>2021-03-17T16:49:30Z</time>
      </trkpt>
      <trkpt lat="45.41521" lon="4.64528">
        <ele>733</ele>
        <time>2021-03-17T16:49:37Z</time>
      </trkpt>
      <trkpt lat="45.41522" lon="4.64508">
        <ele>733</ele>
        <time>2021-03-17T16:49:44Z</time>
      </trkpt>
      <trkpt lat="45.41517" lon="4.64494">
        <ele>734</ele>
        <time>2021-03-17T16:49:50Z</time>
      </trkpt>
      <trkpt lat="45.41511" lon="4.64447">
        <ele>734</ele>
        <time>2021-03-17T16:50:07Z</time>
      </trkpt>
      <trkpt lat="45.41491" lon="4.64399">
        <ele>739</ele>
        <time>2021-03-17T16:50:26Z</time>
      </trkpt>
      <trkpt lat="45.4147" lon="4.64364">
        <ele>742</ele>
        <time>2021-03-17T16:50:42Z</time>
      </trkpt>
      <trkpt lat="45.4144" lon="4.64293">
        <ele>745</ele>
        <time>2021-03-17T16:51:12Z</time>
      </trkpt>
      <trkpt lat="45.41431" lon="4.64283">
        <ele>747</ele>
        <time>2021-03-17T16:51:17Z</time>
      </trkpt>
      <trkpt lat="45.41421" lon="4.64263">
        <ele>748</ele>
        <time>2021-03-17T16:51:26Z</time>
      </trkpt>
      <trkpt lat="45.41415" lon="4.64258">
        <ele>750</ele>
        <time>2021-03-17T16:51:29Z</time>
      </trkpt>
      <trkpt lat="45.41375" lon="4.64199">
        <ele>754</ele>
        <time>2021-03-17T16:51:58Z</time>
      </trkpt>
      <trkpt lat="45.41355" lon="4.64162">
        <ele>757</ele>
        <time>2021-03-17T16:52:15Z</time>
      </trkpt>
      <trkpt lat="45.41341" lon="4.6413">
        <ele>760</ele>
        <time>2021-03-17T16:52:28Z</time>
      </trkpt>
      <trkpt lat="45.41335" lon="4.6413">
        <ele>762</ele>
        <time>2021-03-17T16:52:31Z</time>
      </trkpt>
      <trkpt lat="45.41328" lon="4.64159">
        <ele>763</ele>
        <time>2021-03-17T16:52:42Z</time>
      </trkpt>
      <trkpt lat="45.4133" lon="4.64176">
        <ele>763</ele>
        <time>2021-03-17T16:52:48Z</time>
      </trkpt>
      <trkpt lat="45.4133" lon="4.64229">
        <ele>764</ele>
        <time>2021-03-17T16:53:06Z</time>
      </trkpt>
      <trkpt lat="45.41326" lon="4.64282">
        <ele>765</ele>
        <time>2021-03-17T16:53:25Z</time>
      </trkpt>
      <trkpt lat="45.4132" lon="4.64316">
        <ele>766</ele>
        <time>2021-03-17T16:53:37Z</time>
      </trkpt>
      <trkpt lat="45.41313" lon="4.6434">
        <ele>767</ele>
        <time>2021-03-17T16:53:46Z</time>
      </trkpt>
      <trkpt lat="45.4129" lon="4.64385">
        <ele>768</ele>
        <time>2021-03-17T16:54:06Z</time>
      </trkpt>
      <trkpt lat="45.4123" lon="4.6445">
        <ele>767</ele>
        <time>2021-03-17T16:54:44Z</time>
      </trkpt>
      <trkpt lat="45.41214" lon="4.6446">
        <ele>767</ele>
        <time>2021-03-17T16:54:52Z</time>
      </trkpt>
      <trkpt lat="45.41195" lon="4.64478">
        <ele>767</ele>
        <time>2021-03-17T16:55:04Z</time>
      </trkpt>
      <trkpt lat="45.41152" lon="4.64511">
        <ele>766</ele>
        <time>2021-03-17T16:55:28Z</time>
      </trkpt>
      <trkpt lat="45.41103" lon="4.64557">
        <ele>763</ele>
        <time>2021-03-17T16:55:58Z</time>
      </trkpt>
      <trkpt lat="45.41067" lon="4.64584">
        <ele>760</ele>
        <time>2021-03-17T16:56:18Z</time>
      </trkpt>
      <trkpt lat="45.4106" lon="4.64586">
        <ele>759</ele>
        <time>2021-03-17T16:56:22Z</time>
      </trkpt>
      <trkpt lat="45.4105" lon="4.64594">
        <ele>757</ele>
        <time>2021-03-17T16:56:27Z</time>
      </trkpt>
      <trkpt lat="45.41035" lon="4.64596">
        <ele>756</ele>
        <time>2021-03-17T16:56:35Z</time>
      </trkpt>
      <trkpt lat="45.41013" lon="4.6459">
        <ele>756</ele>
        <time>2021-03-17T16:56:46Z</time>
      </trkpt>
      <trkpt lat="45.4101" lon="4.64587">
        <ele>756</ele>
        <time>2021-03-17T16:56:48Z</time>
      </trkpt>
      <trkpt lat="45.40995" lon="4.64583">
        <ele>755</ele>
        <time>2021-03-17T16:56:56Z</time>
      </trkpt>
      <trkpt lat="45.40984" lon="4.64577">
        <ele>754</ele>
        <time>2021-03-17T16:57:01Z</time>
      </trkpt>
      <trkpt lat="45.40952" lon="4.64569">
        <ele>750</ele>
        <time>2021-03-17T16:57:18Z</time>
      </trkpt>
      <trkpt lat="45.40944" lon="4.64565">
        <ele>749</ele>
        <time>2021-03-17T16:57:22Z</time>
      </trkpt>
      <trkpt lat="45.40907" lon="4.64557">
        <ele>743</ele>
        <time>2021-03-17T16:57:41Z</time>
      </trkpt>
      <trkpt lat="45.409" lon="4.64553">
        <ele>742</ele>
        <time>2021-03-17T16:57:44Z</time>
      </trkpt>
      <trkpt lat="45.40875" lon="4.64528">
        <ele>739</ele>
        <time>2021-03-17T16:58:00Z</time>
      </trkpt>
      <trkpt lat="45.40861" lon="4.64509">
        <ele>737</ele>
        <time>2021-03-17T16:58:09Z</time>
      </trkpt>
      <trkpt lat="45.40843" lon="4.64475">
        <ele>737</ele>
        <time>2021-03-17T16:58:24Z</time>
      </trkpt>
      <trkpt lat="45.40831" lon="4.64465">
        <ele>736</ele>
        <time>2021-03-17T16:58:31Z</time>
      </trkpt>
      <trkpt lat="45.40821" lon="4.64467">
        <ele>733</ele>
        <time>2021-03-17T16:58:36Z</time>
      </trkpt>
      <trkpt lat="45.40815" lon="4.64474">
        <ele>731</ele>
        <time>2021-03-17T16:58:40Z</time>
      </trkpt>
      <trkpt lat="45.40813" lon="4.64482">
        <ele>730</ele>
        <time>2021-03-17T16:58:43Z</time>
      </trkpt>
      <trkpt lat="45.40816" lon="4.64506">
        <ele>728</ele>
        <time>2021-03-17T16:58:52Z</time>
      </trkpt>
      <trkpt lat="45.40812" lon="4.64519">
        <ele>725</ele>
        <time>2021-03-17T16:58:57Z</time>
      </trkpt>
      <trkpt lat="45.40802" lon="4.64526">
        <ele>722</ele>
        <time>2021-03-17T16:59:02Z</time>
      </trkpt>
      <trkpt lat="45.40794" lon="4.64526">
        <ele>720</ele>
        <time>2021-03-17T16:59:06Z</time>
      </trkpt>
      <trkpt lat="45.40781" lon="4.64521">
        <ele>718</ele>
        <time>2021-03-17T16:59:13Z</time>
      </trkpt>
      <trkpt lat="45.40772" lon="4.64514">
        <ele>717</ele>
        <time>2021-03-17T16:59:18Z</time>
      </trkpt>
      <trkpt lat="45.40765" lon="4.64502">
        <ele>717</ele>
        <time>2021-03-17T16:59:24Z</time>
      </trkpt>
      <trkpt lat="45.40756" lon="4.64473">
        <ele>719</ele>
        <time>2021-03-17T16:59:35Z</time>
      </trkpt>
      <trkpt lat="45.4075" lon="4.64464">
        <ele>720</ele>
        <time>2021-03-17T16:59:39Z</time>
      </trkpt>
      <trkpt lat="45.40733" lon="4.64423">
        <ele>722</ele>
        <time>2021-03-17T16:59:56Z</time>
      </trkpt>
      <trkpt lat="45.40717" lon="4.64392">
        <ele>722</ele>
        <time>2021-03-17T17:00:10Z</time>
      </trkpt>
      <trkpt lat="45.40706" lon="4.64353">
        <ele>726</ele>
        <time>2021-03-17T17:00:24Z</time>
      </trkpt>
      <trkpt lat="45.40698" lon="4.64338">
        <ele>727</ele>
        <time>2021-03-17T17:00:31Z</time>
      </trkpt>
      <trkpt lat="45.40686" lon="4.64325">
        <ele>726</ele>
        <time>2021-03-17T17:00:38Z</time>
      </trkpt>
      <trkpt lat="45.40672" lon="4.64321">
        <ele>724</ele>
        <time>2021-03-17T17:00:46Z</time>
      </trkpt>
      <trkpt lat="45.40649" lon="4.64307">
        <ele>722</ele>
        <time>2021-03-17T17:00:58Z</time>
      </trkpt>
      <trkpt lat="45.40629" lon="4.64306">
        <ele>719</ele>
        <time>2021-03-17T17:01:08Z</time>
      </trkpt>
      <trkpt lat="45.40608" lon="4.64312">
        <ele>715</ele>
        <time>2021-03-17T17:01:19Z</time>
      </trkpt>
      <trkpt lat="45.40591" lon="4.64311">
        <ele>712</ele>
        <time>2021-03-17T17:01:27Z</time>
      </trkpt>
      <trkpt lat="45.40562" lon="4.64291">
        <ele>710</ele>
        <time>2021-03-17T17:01:43Z</time>
      </trkpt>
      <trkpt lat="45.40522" lon="4.64254">
        <ele>708</ele>
        <time>2021-03-17T17:02:07Z</time>
      </trkpt>
      <trkpt lat="45.40504" lon="4.64243">
        <ele>706</ele>
        <time>2021-03-17T17:02:17Z</time>
      </trkpt>
      <trkpt lat="45.4049" lon="4.64228">
        <ele>705</ele>
        <time>2021-03-17T17:02:26Z</time>
      </trkpt>
      <trkpt lat="45.40482" lon="4.64225">
        <ele>704</ele>
        <time>2021-03-17T17:02:30Z</time>
      </trkpt>
      <trkpt lat="45.4047" lon="4.64229">
        <ele>700</ele>
        <time>2021-03-17T17:02:36Z</time>
      </trkpt>
      <trkpt lat="45.40453" lon="4.64228">
        <ele>696</ele>
        <time>2021-03-17T17:02:45Z</time>
      </trkpt>
      <trkpt lat="45.40442" lon="4.64222">
        <ele>695</ele>
        <time>2021-03-17T17:02:51Z</time>
      </trkpt>
      <trkpt lat="45.40436" lon="4.64217">
        <ele>694</ele>
        <time>2021-03-17T17:02:54Z</time>
      </trkpt>
      <trkpt lat="45.40392" lon="4.64148">
        <ele>699</ele>
        <time>2021-03-17T17:03:27Z</time>
      </trkpt>
      <trkpt lat="45.40357" lon="4.64112">
        <ele>698</ele>
        <time>2021-03-17T17:03:48Z</time>
      </trkpt>
      <trkpt lat="45.40356" lon="4.64122">
        <ele>696</ele>
        <time>2021-03-17T17:03:52Z</time>
      </trkpt>
      <trkpt lat="45.40348" lon="4.64129">
        <ele>692</ele>
        <time>2021-03-17T17:03:57Z</time>
      </trkpt>
      <trkpt lat="45.40328" lon="4.64121">
        <ele>690</ele>
        <time>2021-03-17T17:04:07Z</time>
      </trkpt>
      <trkpt lat="45.40322" lon="4.64124">
        <ele>688</ele>
        <time>2021-03-17T17:04:10Z</time>
      </trkpt>
      <trkpt lat="45.4029" lon="4.6412">
        <ele>685</ele>
        <time>2021-03-17T17:04:26Z</time>
      </trkpt>
      <trkpt lat="45.4028" lon="4.64123">
        <ele>684</ele>
        <time>2021-03-17T17:04:31Z</time>
      </trkpt>
      <trkpt lat="45.40279" lon="4.6413">
        <ele>683</ele>
        <time>2021-03-17T17:04:34Z</time>
      </trkpt>
      <trkpt lat="45.40283" lon="4.64146">
        <ele>682</ele>
        <time>2021-03-17T17:04:40Z</time>
      </trkpt>
      <trkpt lat="45.40283" lon="4.64164">
        <ele>681</ele>
        <time>2021-03-17T17:04:46Z</time>
      </trkpt>
      <trkpt lat="45.40299" lon="4.64216">
        <ele>678</ele>
        <time>2021-03-17T17:05:06Z</time>
      </trkpt>
      <trkpt lat="45.40305" lon="4.6426">
        <ele>674</ele>
        <time>2021-03-17T17:05:22Z</time>
      </trkpt>
      <trkpt lat="45.40327" lon="4.64299">
        <ele>668</ele>
        <time>2021-03-17T17:05:40Z</time>
      </trkpt>
      <trkpt lat="45.40331" lon="4.64316">
        <ele>666</ele>
        <time>2021-03-17T17:05:46Z</time>
      </trkpt>
      <trkpt lat="45.40348" lon="4.64355">
        <ele>667</ele>
        <time>2021-03-17T17:06:02Z</time>
      </trkpt>
      <trkpt lat="45.40349" lon="4.64364">
        <ele>667</ele>
        <time>2021-03-17T17:06:05Z</time>
      </trkpt>
      <trkpt lat="45.4036" lon="4.64385">
        <ele>668</ele>
        <time>2021-03-17T17:06:14Z</time>
      </trkpt>
      <trkpt lat="45.40365" lon="4.64413">
        <ele>668</ele>
        <time>2021-03-17T17:06:25Z</time>
      </trkpt>
      <trkpt lat="45.40374" lon="4.64443">
        <ele>667</ele>
        <time>2021-03-17T17:06:36Z</time>
      </trkpt>
      <trkpt lat="45.40377" lon="4.64465">
        <ele>667</ele>
        <time>2021-03-17T17:06:44Z</time>
      </trkpt>
      <trkpt lat="45.40377" lon="4.64491">
        <ele>667</ele>
        <time>2021-03-17T17:06:53Z</time>
      </trkpt>
      <trkpt lat="45.40408" lon="4.64566">
        <ele>659</ele>
        <time>2021-03-17T17:07:24Z</time>
      </trkpt>
      <trkpt lat="45.40424" lon="4.64588">
        <ele>656</ele>
        <time>2021-03-17T17:07:35Z</time>
      </trkpt>
      <trkpt lat="45.40428" lon="4.64603">
        <ele>658</ele>
        <time>2021-03-17T17:07:40Z</time>
      </trkpt>
      <trkpt lat="45.40439" lon="4.64624">
        <ele>659</ele>
        <time>2021-03-17T17:07:50Z</time>
      </trkpt>
      <trkpt lat="45.40449" lon="4.64636">
        <ele>657</ele>
        <time>2021-03-17T17:07:56Z</time>
      </trkpt>
      <trkpt lat="45.40493" lon="4.64671">
        <ele>646</ele>
        <time>2021-03-17T17:08:21Z</time>
      </trkpt>
      <trkpt lat="45.40514" lon="4.64705">
        <ele>647</ele>
        <time>2021-03-17T17:08:37Z</time>
      </trkpt>
      <trkpt lat="45.40538" lon="4.64733">
        <ele>644</ele>
        <time>2021-03-17T17:08:53Z</time>
      </trkpt>
      <trkpt lat="45.40553" lon="4.64757">
        <ele>642</ele>
        <time>2021-03-17T17:09:04Z</time>
      </trkpt>
      <trkpt lat="45.40557" lon="4.64784">
        <ele>643</ele>
        <time>2021-03-17T17:09:14Z</time>
      </trkpt>
      <trkpt lat="45.40565" lon="4.64802">
        <ele>642</ele>
        <time>2021-03-17T17:09:21Z</time>
      </trkpt>
      <trkpt lat="45.40568" lon="4.6483">
        <ele>643</ele>
        <time>2021-03-17T17:09:31Z</time>
      </trkpt>
      <trkpt lat="45.40567" lon="4.6485">
        <ele>646</ele>
        <time>2021-03-17T17:09:38Z</time>
      </trkpt>
      <trkpt lat="45.40579" lon="4.64872">
        <ele>644</ele>
        <time>2021-03-17T17:09:48Z</time>
      </trkpt>
      <trkpt lat="45.40577" lon="4.64889">
        <ele>647</ele>
        <time>2021-03-17T17:09:54Z</time>
      </trkpt>
      <trkpt lat="45.4059" lon="4.64931">
        <ele>647</ele>
        <time>2021-03-17T17:10:10Z</time>
      </trkpt>
      <trkpt lat="45.40593" lon="4.6496">
        <ele>649</ele>
        <time>2021-03-17T17:10:20Z</time>
      </trkpt>
      <trkpt lat="45.40599" lon="4.64971">
        <ele>648</ele>
        <time>2021-03-17T17:10:25Z</time>
      </trkpt>
      <trkpt lat="45.40604" lon="4.64977">
        <ele>646</ele>
        <time>2021-03-17T17:10:29Z</time>
      </trkpt>
      <trkpt lat="45.40609" lon="4.64978">
        <ele>644</ele>
        <time>2021-03-17T17:10:31Z</time>
      </trkpt>
      <trkpt lat="45.40614" lon="4.64986">
        <ele>643</ele>
        <time>2021-03-17T17:10:35Z</time>
      </trkpt>
      <trkpt lat="45.4061" lon="4.64995">
        <ele>645</ele>
        <time>2021-03-17T17:10:39Z</time>
      </trkpt>
      <trkpt lat="45.40614" lon="4.65">
        <ele>644</ele>
        <time>2021-03-17T17:10:41Z</time>
      </trkpt>
      <trkpt lat="45.40615" lon="4.65007">
        <ele>644</ele>
        <time>2021-03-17T17:10:44Z</time>
      </trkpt>
      <trkpt lat="45.40613" lon="4.65011">
        <ele>645</ele>
        <time>2021-03-17T17:10:46Z</time>
      </trkpt>
      <trkpt lat="45.40613" lon="4.65054">
        <ele>647</ele>
        <time>2021-03-17T17:11:01Z</time>
      </trkpt>
      <trkpt lat="45.40624" lon="4.65078">
        <ele>643</ele>
        <time>2021-03-17T17:11:11Z</time>
      </trkpt>
      <trkpt lat="45.40619" lon="4.6509">
        <ele>645</ele>
        <time>2021-03-17T17:11:16Z</time>
      </trkpt>
      <trkpt lat="45.40624" lon="4.65107">
        <ele>643</ele>
        <time>2021-03-17T17:11:22Z</time>
      </trkpt>
      <trkpt lat="45.40623" lon="4.65136">
        <ele>644</ele>
        <time>2021-03-17T17:11:32Z</time>
      </trkpt>
      <trkpt lat="45.40619" lon="4.65148">
        <ele>646</ele>
        <time>2021-03-17T17:11:37Z</time>
      </trkpt>
      <trkpt lat="45.40619" lon="4.65159">
        <ele>646</ele>
        <time>2021-03-17T17:11:41Z</time>
      </trkpt>
      <trkpt lat="45.40626" lon="4.65174">
        <ele>643</ele>
        <time>2021-03-17T17:11:47Z</time>
      </trkpt>
      <trkpt lat="45.40624" lon="4.65179">
        <ele>644</ele>
        <time>2021-03-17T17:11:49Z</time>
      </trkpt>
      <trkpt lat="45.40629" lon="4.65192">
        <ele>642</ele>
        <time>2021-03-17T17:11:54Z</time>
      </trkpt>
      <trkpt lat="45.40631" lon="4.6521">
        <ele>642</ele>
        <time>2021-03-17T17:12:01Z</time>
      </trkpt>
      <trkpt lat="45.40638" lon="4.65225">
        <ele>640</ele>
        <time>2021-03-17T17:12:07Z</time>
      </trkpt>
      <trkpt lat="45.40639" lon="4.65244">
        <ele>641</ele>
        <time>2021-03-17T17:12:14Z</time>
      </trkpt>
      <trkpt lat="45.40647" lon="4.65255">
        <ele>638</ele>
        <time>2021-03-17T17:12:19Z</time>
      </trkpt>
      <trkpt lat="45.40653" lon="4.65259">
        <ele>636</ele>
        <time>2021-03-17T17:12:23Z</time>
      </trkpt>
      <trkpt lat="45.40662" lon="4.65273">
        <ele>634</ele>
        <time>2021-03-17T17:12:29Z</time>
      </trkpt>
      <trkpt lat="45.40662" lon="4.65288">
        <ele>635</ele>
        <time>2021-03-17T17:12:35Z</time>
      </trkpt>
      <trkpt lat="45.40669" lon="4.65309">
        <ele>635</ele>
        <time>2021-03-17T17:12:43Z</time>
      </trkpt>
      <trkpt lat="45.40675" lon="4.65343">
        <ele>635</ele>
        <time>2021-03-17T17:12:55Z</time>
      </trkpt>
      <trkpt lat="45.40686" lon="4.65376">
        <ele>633</ele>
        <time>2021-03-17T17:13:08Z</time>
      </trkpt>
      <trkpt lat="45.40688" lon="4.65391">
        <ele>633</ele>
        <time>2021-03-17T17:13:13Z</time>
      </trkpt>
      <trkpt lat="45.40701" lon="4.65419">
        <ele>630</ele>
        <time>2021-03-17T17:13:25Z</time>
      </trkpt>
      <trkpt lat="45.4071" lon="4.65431">
        <ele>627</ele>
        <time>2021-03-17T17:13:31Z</time>
      </trkpt>
      <trkpt lat="45.4073" lon="4.65469">
        <ele>622</ele>
        <time>2021-03-17T17:13:48Z</time>
      </trkpt>
      <trkpt lat="45.40747" lon="4.65491">
        <ele>617</ele>
        <time>2021-03-17T17:13:59Z</time>
      </trkpt>
      <trkpt lat="45.40756" lon="4.65511">
        <ele>614</ele>
        <time>2021-03-17T17:14:08Z</time>
      </trkpt>
      <trkpt lat="45.40765" lon="4.65521">
        <ele>611</ele>
        <time>2021-03-17T17:14:14Z</time>
      </trkpt>
      <trkpt lat="45.40773" lon="4.65544">
        <ele>609</ele>
        <time>2021-03-17T17:14:23Z</time>
      </trkpt>
      <trkpt lat="45.40781" lon="4.65555">
        <ele>607</ele>
        <time>2021-03-17T17:14:28Z</time>
      </trkpt>
      <trkpt lat="45.4079" lon="4.65575">
        <ele>605</ele>
        <time>2021-03-17T17:14:36Z</time>
      </trkpt>
      <trkpt lat="45.40794" lon="4.65579">
        <ele>603</ele>
        <time>2021-03-17T17:14:39Z</time>
      </trkpt>
      <trkpt lat="45.40798" lon="4.65577">
        <ele>602</ele>
        <time>2021-03-17T17:14:41Z</time>
      </trkpt>
      <trkpt lat="45.40778" lon="4.65496">
        <ele>604</ele>
        <time>2021-03-17T17:15:11Z</time>
      </trkpt>
      <trkpt lat="45.40779" lon="4.65444">
        <ele>602</ele>
        <time>2021-03-17T17:15:29Z</time>
      </trkpt>
      <trkpt lat="45.40775" lon="4.65414">
        <ele>602</ele>
        <time>2021-03-17T17:15:40Z</time>
      </trkpt>
      <trkpt lat="45.40782" lon="4.65385">
        <ele>598</ele>
        <time>2021-03-17T17:15:51Z</time>
      </trkpt>
      <trkpt lat="45.40782" lon="4.6536">
        <ele>597</ele>
        <time>2021-03-17T17:16:00Z</time>
      </trkpt>
      <trkpt lat="45.4078" lon="4.65337">
        <ele>596</ele>
        <time>2021-03-17T17:16:08Z</time>
      </trkpt>
      <trkpt lat="45.40774" lon="4.65323">
        <ele>598</ele>
        <time>2021-03-17T17:16:14Z</time>
      </trkpt>
      <trkpt lat="45.40766" lon="4.65246">
        <ele>598</ele>
        <time>2021-03-17T17:16:41Z</time>
      </trkpt>
      <trkpt lat="45.40773" lon="4.65206">
        <ele>598</ele>
        <time>2021-03-17T17:16:56Z</time>
      </trkpt>
      <trkpt lat="45.40778" lon="4.652">
        <ele>598</ele>
        <time>2021-03-17T17:16:59Z</time>
      </trkpt>
      <trkpt lat="45.40812" lon="4.65205">
        <ele>596</ele>
        <time>2021-03-17T17:17:16Z</time>
      </trkpt>
      <trkpt lat="45.40829" lon="4.65211">
        <ele>594</ele>
        <time>2021-03-17T17:17:25Z</time>
      </trkpt>
      <trkpt lat="45.40857" lon="4.65229">
        <ele>597</ele>
        <time>2021-03-17T17:17:40Z</time>
      </trkpt>
      <trkpt lat="45.40872" lon="4.65247">
        <ele>597</ele>
        <time>2021-03-17T17:17:50Z</time>
      </trkpt>
      <trkpt lat="45.40893" lon="4.65251">
        <ele>601</ele>
        <time>2021-03-17T17:18:00Z</time>
      </trkpt>
      <trkpt lat="45.40899" lon="4.65256">
        <ele>602</ele>
        <time>2021-03-17T17:18:04Z</time>
      </trkpt>
      <trkpt lat="45.40899" lon="4.65262">
        <ele>601</ele>
        <time>2021-03-17T17:18:06Z</time>
      </trkpt>
      <trkpt lat="45.40905" lon="4.65271">
        <ele>601</ele>
        <time>2021-03-17T17:18:10Z</time>
      </trkpt>
      <trkpt lat="45.40917" lon="4.65278">
        <ele>602</ele>
        <time>2021-03-17T17:18:17Z</time>
      </trkpt>
      <trkpt lat="45.40922" lon="4.65284">
        <ele>603</ele>
        <time>2021-03-17T17:18:20Z</time>
      </trkpt>
      <trkpt lat="45.40935" lon="4.65289">
        <ele>605</ele>
        <time>2021-03-17T17:18:27Z</time>
      </trkpt>
      <trkpt lat="45.40942" lon="4.65299">
        <ele>606</ele>
        <time>2021-03-17T17:18:32Z</time>
      </trkpt>
      <trkpt lat="45.4095" lon="4.65319">
        <ele>605</ele>
        <time>2021-03-17T17:18:40Z</time>
      </trkpt>
      <trkpt lat="45.40966" lon="4.65334">
        <ele>608</ele>
        <time>2021-03-17T17:18:50Z</time>
      </trkpt>
      <trkpt lat="45.40978" lon="4.6535">
        <ele>609</ele>
        <time>2021-03-17T17:18:58Z</time>
      </trkpt>
      <trkpt lat="45.40991" lon="4.65359">
        <ele>612</ele>
        <time>2021-03-17T17:19:05Z</time>
      </trkpt>
      <trkpt lat="45.41009" lon="4.65385">
        <ele>613</ele>
        <time>2021-03-17T17:19:18Z</time>
      </trkpt>
      <trkpt lat="45.4103" lon="4.65408">
        <ele>615</ele>
        <time>2021-03-17T17:19:31Z</time>
      </trkpt>
      <trkpt lat="45.41049" lon="4.65424">
        <ele>617</ele>
        <time>2021-03-17T17:19:42Z</time>
      </trkpt>
      <trkpt lat="45.41068" lon="4.65435">
        <ele>620</ele>
        <time>2021-03-17T17:19:52Z</time>
      </trkpt>
      <trkpt lat="45.41081" lon="4.65447">
        <ele>622</ele>
        <time>2021-03-17T17:20:00Z</time>
      </trkpt>
      <trkpt lat="45.41098" lon="4.65451">
        <ele>622</ele>
        <time>2021-03-17T17:20:09Z</time>
      </trkpt>
      <trkpt lat="45.41127" lon="4.65449">
        <ele>624</ele>
        <time>2021-03-17T17:20:23Z</time>
      </trkpt>
      <trkpt lat="45.41156" lon="4.65466">
        <ele>624</ele>
        <time>2021-03-17T17:20:39Z</time>
      </trkpt>
      <trkpt lat="45.41164" lon="4.65476">
        <ele>624</ele>
        <time>2021-03-17T17:20:44Z</time>
      </trkpt>
      <trkpt lat="45.41186" lon="4.65516">
        <ele>619</ele>
        <time>2021-03-17T17:21:02Z</time>
      </trkpt>
      <trkpt lat="45.41196" lon="4.65526">
        <ele>616</ele>
        <time>2021-03-17T17:21:08Z</time>
      </trkpt>
      <trkpt lat="45.41206" lon="4.65542">
        <ele>612</ele>
        <time>2021-03-17T17:21:16Z</time>
      </trkpt>
      <trkpt lat="45.41218" lon="4.65595">
        <ele>606</ele>
        <time>2021-03-17T17:21:35Z</time>
      </trkpt>
      <trkpt lat="45.4123" lon="4.6562">
        <ele>602</ele>
        <time>2021-03-17T17:21:46Z</time>
      </trkpt>
      <trkpt lat="45.41259" lon="4.65663">
        <ele>596</ele>
        <time>2021-03-17T17:22:07Z</time>
      </trkpt>
      <trkpt lat="45.41261" lon="4.65697">
        <ele>595</ele>
        <time>2021-03-17T17:22:19Z</time>
      </trkpt>
      <trkpt lat="45.41288" lon="4.65744">
        <ele>592</ele>
        <time>2021-03-17T17:22:40Z</time>
      </trkpt>
      <trkpt lat="45.41294" lon="4.65769">
        <ele>591</ele>
        <time>2021-03-17T17:22:50Z</time>
      </trkpt>
      <trkpt lat="45.41296" lon="4.6578">
        <ele>590</ele>
        <time>2021-03-17T17:22:54Z</time>
      </trkpt>
      <trkpt lat="45.41294" lon="4.65814">
        <ele>588</ele>
        <time>2021-03-17T17:23:06Z</time>
      </trkpt>
      <trkpt lat="45.41302" lon="4.65845">
        <ele>587</ele>
        <time>2021-03-17T17:23:17Z</time>
      </trkpt>
      <trkpt lat="45.41302" lon="4.65859">
        <ele>586</ele>
        <time>2021-03-17T17:23:22Z</time>
      </trkpt>
      <trkpt lat="45.41313" lon="4.65883">
        <ele>585</ele>
        <time>2021-03-17T17:23:32Z</time>
      </trkpt>
      <trkpt lat="45.41314" lon="4.6591">
        <ele>583</ele>
        <time>2021-03-17T17:23:42Z</time>
      </trkpt>
      <trkpt lat="45.4131" lon="4.65941">
        <ele>580</ele>
        <time>2021-03-17T17:23:53Z</time>
      </trkpt>
      <trkpt lat="45.41311" lon="4.6595">
        <ele>579</ele>
        <time>2021-03-17T17:23:56Z</time>
      </trkpt>
      <trkpt lat="45.41326" lon="4.65999">
        <ele>575</ele>
        <time>2021-03-17T17:24:15Z</time>
      </trkpt>
      <trkpt lat="45.41323" lon="4.66041">
        <ele>570</ele>
        <time>2021-03-17T17:24:29Z</time>
      </trkpt>
      <trkpt lat="45.4131" lon="4.6608">
        <ele>563</ele>
        <time>2021-03-17T17:24:45Z</time>
      </trkpt>
      <trkpt lat="45.41318" lon="4.66117">
        <ele>561</ele>
        <time>2021-03-17T17:24:58Z</time>
      </trkpt>
      <trkpt lat="45.41342" lon="4.66196">
        <ele>555</ele>
        <time>2021-03-17T17:25:28Z</time>
      </trkpt>
      <trkpt lat="45.41348" lon="4.66261">
        <ele>546</ele>
        <time>2021-03-17T17:25:52Z</time>
      </trkpt>
      <trkpt lat="45.41346" lon="4.66275">
        <ele>543</ele>
        <time>2021-03-17T17:25:57Z</time>
      </trkpt>
      <trkpt lat="45.41356" lon="4.66327">
        <ele>534</ele>
        <time>2021-03-17T17:26:15Z</time>
      </trkpt>
      <trkpt lat="45.41369" lon="4.66367">
        <ele>527</ele>
        <time>2021-03-17T17:26:31Z</time>
      </trkpt>
      <trkpt lat="45.41376" lon="4.66408">
        <ele>520</ele>
        <time>2021-03-17T17:26:46Z</time>
      </trkpt>
      <trkpt lat="45.41397" lon="4.66454">
        <ele>513</ele>
        <time>2021-03-17T17:27:05Z</time>
      </trkpt>
      <trkpt lat="45.41421" lon="4.6648">
        <ele>510</ele>
        <time>2021-03-17T17:27:20Z</time>
      </trkpt>
      <trkpt lat="45.41451" lon="4.66535">
        <ele>500</ele>
        <time>2021-03-17T17:27:45Z</time>
      </trkpt>
      <trkpt lat="45.41457" lon="4.66552">
        <ele>497</ele>
        <time>2021-03-17T17:27:51Z</time>
      </trkpt>
      <trkpt lat="45.41468" lon="4.66562">
        <ele>495</ele>
        <time>2021-03-17T17:27:58Z</time>
      </trkpt>
      <trkpt lat="45.415" lon="4.66577">
        <ele>492</ele>
        <time>2021-03-17T17:28:15Z</time>
      </trkpt>
      <trkpt lat="45.41505" lon="4.66576">
        <ele>491</ele>
        <time>2021-03-17T17:28:17Z</time>
      </trkpt>
      <trkpt lat="45.41511" lon="4.66566">
        <ele>490</ele>
        <time>2021-03-17T17:28:22Z</time>
      </trkpt>
      <trkpt lat="45.4152" lon="4.66544">
        <ele>490</ele>
        <time>2021-03-17T17:28:31Z</time>
      </trkpt>
      <trkpt lat="45.41529" lon="4.66503">
        <ele>492</ele>
        <time>2021-03-17T17:28:46Z</time>
      </trkpt>
      <trkpt lat="45.41546" lon="4.6647">
        <ele>492</ele>
        <time>2021-03-17T17:29:00Z</time>
      </trkpt>
      <trkpt lat="45.41553" lon="4.66448">
        <ele>493</ele>
        <time>2021-03-17T17:29:09Z</time>
      </trkpt>
      <trkpt lat="45.4157" lon="4.66414">
        <ele>495</ele>
        <time>2021-03-17T17:29:23Z</time>
      </trkpt>
      <trkpt lat="45.41573" lon="4.664">
        <ele>497</ele>
        <time>2021-03-17T17:29:29Z</time>
      </trkpt>
      <trkpt lat="45.41583" lon="4.66375">
        <ele>499</ele>
        <time>2021-03-17T17:29:39Z</time>
      </trkpt>
      <trkpt lat="45.41591" lon="4.66362">
        <ele>500</ele>
        <time>2021-03-17T17:29:45Z</time>
      </trkpt>
      <trkpt lat="45.41599" lon="4.66333">
        <ele>503</ele>
        <time>2021-03-17T17:29:56Z</time>
      </trkpt>
      <trkpt lat="45.4161" lon="4.66319">
        <ele>504</ele>
        <time>2021-03-17T17:30:03Z</time>
      </trkpt>
      <trkpt lat="45.41637" lon="4.66304">
        <ele>501</ele>
        <time>2021-03-17T17:30:18Z</time>
      </trkpt>
      <trkpt lat="45.41652" lon="4.66287">
        <ele>501</ele>
        <time>2021-03-17T17:30:27Z</time>
      </trkpt>
      <trkpt lat="45.41673" lon="4.66257">
        <ele>502</ele>
        <time>2021-03-17T17:30:42Z</time>
      </trkpt>
      <trkpt lat="45.41675" lon="4.66246">
        <ele>504</ele>
        <time>2021-03-17T17:30:46Z</time>
      </trkpt>
      <trkpt lat="45.41671" lon="4.66223">
        <ele>506</ele>
        <time>2021-03-17T17:30:54Z</time>
      </trkpt>
      <trkpt lat="45.41675" lon="4.66214">
        <ele>507</ele>
        <time>2021-03-17T17:30:58Z</time>
      </trkpt>
      <trkpt lat="45.41675" lon="4.66199">
        <ele>509</ele>
        <time>2021-03-17T17:31:03Z</time>
      </trkpt>
      <trkpt lat="45.41673" lon="4.66193">
        <ele>509</ele>
        <time>2021-03-17T17:31:06Z</time>
      </trkpt>
      <trkpt lat="45.41671" lon="4.6614">
        <ele>514</ele>
        <time>2021-03-17T17:31:24Z</time>
      </trkpt>
      <trkpt lat="45.41676" lon="4.6612">
        <ele>515</ele>
        <time>2021-03-17T17:31:32Z</time>
      </trkpt>
      <trkpt lat="45.41673" lon="4.66095">
        <ele>517</ele>
        <time>2021-03-17T17:31:41Z</time>
      </trkpt>
      <trkpt lat="45.41679" lon="4.66053">
        <ele>521</ele>
        <time>2021-03-17T17:31:56Z</time>
      </trkpt>
      <trkpt lat="45.41685" lon="4.66044">
        <ele>521</ele>
        <time>2021-03-17T17:32:00Z</time>
      </trkpt>
      <trkpt lat="45.41696" lon="4.66037">
        <ele>521</ele>
        <time>2021-03-17T17:32:06Z</time>
      </trkpt>
      <trkpt lat="45.41713" lon="4.66033">
        <ele>519</ele>
        <time>2021-03-17T17:32:15Z</time>
      </trkpt>
      <trkpt lat="45.41751" lon="4.66011">
        <ele>518</ele>
        <time>2021-03-17T17:32:35Z</time>
      </trkpt>
      <trkpt lat="45.41778" lon="4.65988">
        <ele>519</ele>
        <time>2021-03-17T17:32:51Z</time>
      </trkpt>
      <trkpt lat="45.41799" lon="4.65955">
        <ele>521</ele>
        <time>2021-03-17T17:33:07Z</time>
      </trkpt>
      <trkpt lat="45.41821" lon="4.65895">
        <ele>525</ele>
        <time>2021-03-17T17:33:30Z</time>
      </trkpt>
      <trkpt lat="45.41828" lon="4.6589">
        <ele>525</ele>
        <time>2021-03-17T17:33:34Z</time>
      </trkpt>
      <trkpt lat="45.41837" lon="4.65888">
        <ele>525</ele>
        <time>2021-03-17T17:33:39Z</time>
      </trkpt>
      <trkpt lat="45.41851" lon="4.6589">
        <ele>525</ele>
        <time>2021-03-17T17:33:46Z</time>
      </trkpt>
      <trkpt lat="45.41861" lon="4.65895">
        <ele>524</ele>
        <time>2021-03-17T17:33:51Z</time>
      </trkpt>
      <trkpt lat="45.41883" lon="4.65914">
        <ele>522</ele>
        <time>2021-03-17T17:34:04Z</time>
      </trkpt>
      <trkpt lat="45.41916" lon="4.65926">
        <ele>519</ele>
        <time>2021-03-17T17:34:21Z</time>
      </trkpt>
      <trkpt lat="45.41926" lon="4.65925">
        <ele>519</ele>
        <time>2021-03-17T17:34:26Z</time>
      </trkpt>
      <trkpt lat="45.41937" lon="4.65916">
        <ele>519</ele>
        <time>2021-03-17T17:34:33Z</time>
      </trkpt>
      <trkpt lat="45.41945" lon="4.65905">
        <ele>520</ele>
        <time>2021-03-17T17:34:38Z</time>
      </trkpt>
      <trkpt lat="45.41951" lon="4.65903">
        <ele>520</ele>
        <time>2021-03-17T17:34:41Z</time>
      </trkpt>
      <trkpt lat="45.41975" lon="4.65935">
        <ele>518</ele>
        <time>2021-03-17T17:34:58Z</time>
      </trkpt>
      <trkpt lat="45.4198" lon="4.65959">
        <ele>519</ele>
        <time>2021-03-17T17:35:06Z</time>
      </trkpt>
      <trkpt lat="45.41977" lon="4.65981">
        <ele>520</ele>
        <time>2021-03-17T17:35:14Z</time>
      </trkpt>
      <trkpt lat="45.41959" lon="4.6603">
        <ele>519</ele>
        <time>2021-03-17T17:35:34Z</time>
      </trkpt>
      <trkpt lat="45.41956" lon="4.66057">
        <ele>518</ele>
        <time>2021-03-17T17:35:43Z</time>
      </trkpt>
      <trkpt lat="45.41958" lon="4.66075">
        <ele>518</ele>
        <time>2021-03-17T17:35:50Z</time>
      </trkpt>
      <trkpt lat="45.41971" lon="4.66106">
        <ele>521</ele>
        <time>2021-03-17T17:36:02Z</time>
      </trkpt>
      <trkpt lat="45.41992" lon="4.66182">
        <ele>527</ele>
        <time>2021-03-17T17:36:31Z</time>
      </trkpt>
      <trkpt lat="45.42005" lon="4.66218">
        <ele>529</ele>
        <time>2021-03-17T17:36:45Z</time>
      </trkpt>
      <trkpt lat="45.4202" lon="4.66246">
        <ele>530</ele>
        <time>2021-03-17T17:36:58Z</time>
      </trkpt>
      <trkpt lat="45.42019" lon="4.66262">
        <ele>529</ele>
        <time>2021-03-17T17:37:03Z</time>
      </trkpt>
      <trkpt lat="45.4201" lon="4.66299">
        <ele>526</ele>
        <time>2021-03-17T17:37:17Z</time>
      </trkpt>
    </trkseg>
  </trk>
</gpx>